Time;durP1;ratioP1;P1;durP2;ratioP2;P2;SDS_P1;SDS_P2;PMS_P1;PMS_P2;Temp;Humidity;BMP_temperature;BMP_pressure;BME280_temperature;BME280_humidity;BME280_pressure;Samples;Min_cycle;Max_cycle;Signal;HPM_P1;HPM_P2
2022/11/03 00:01:39;;;;;;;0.40;0.40;;;15.90;99.90;;;;;;5095237;28;20763;-64
2022/11/03 00:04:27;;;;;;;0.47;0.47;;;15.90;99.90;;;;;;5093098;28;20674;-65
2022/11/03 00:07:20;;;;;;;1.40;1.30;;;15.90;99.90;;;;;;5092045;28;20196;-65
2022/11/03 00:10:09;;;;;;;0.40;0.40;;;15.80;99.90;;;;;;5092161;28;20230;-66
2022/11/03 00:12:57;;;;;;;0.40;0.40;;;15.90;99.90;;;;;;5093038;28;20196;-65
2022/11/03 00:15:49;;;;;;;1.45;1.35;;;15.80;99.90;;;;;;5092279;28;20592;-65
2022/11/03 00:18:39;;;;;;;0.60;0.60;;;15.80;99.90;;;;;;5092538;28;20207;-65
2022/11/03 00:21:27;;;;;;;0.40;0.40;;;15.80;99.90;;;;;;5092204;28;20315;-65
2022/11/03 00:24:15;;;;;;;0.88;0.88;;;15.80;99.90;;;;;;5091787;28;20233;-65
2022/11/03 00:27:03;;;;;;;0.52;0.52;;;15.80;99.90;;;;;;5092460;28;20644;-64
2022/11/03 00:29:51;;;;;;;2.35;0.88;;;15.80;99.90;;;;;;5091574;28;20310;-65
2022/11/03 00:32:39;;;;;;;0.40;0.40;;;15.70;99.90;;;;;;5091730;28;20200;-65
2022/11/03 00:35:29;;;;;;;0.40;0.40;;;15.80;99.90;;;;;;5091621;28;20286;-65
2022/11/03 00:38:17;;;;;;;0.40;0.40;;;15.70;99.90;;;;;;5092430;28;20208;-65
2022/11/03 00:41:06;;;;;;;0.40;0.40;;;15.70;99.90;;;;;;5091443;28;20227;-65
2022/11/03 00:43:54;;;;;;;0.40;0.40;;;15.70;99.90;;;;;;5092082;28;20741;-65
2022/11/03 00:46:42;;;;;;;12.60;2.83;;;15.70;99.90;;;;;;5090937;28;20188;-64
2022/11/03 00:49:30;;;;;;;1.52;1.52;;;15.70;99.90;;;;;;5090617;28;20279;-64
2022/11/03 00:52:20;;;;;;;0.40;0.40;;;15.70;99.90;;;;;;5091957;28;20200;-65
2022/11/03 00:55:08;;;;;;;0.40;0.40;;;15.70;99.90;;;;;;5091322;28;20747;-65
2022/11/03 00:57:56;;;;;;;4.88;1.50;;;15.70;99.90;;;;;;5091316;28;20285;-65
2022/11/03 01:00:44;;;;;;;0.40;0.40;;;15.70;99.90;;;;;;5090858;28;20223;-65
2022/11/03 01:03:34;;;;;;;0.93;0.93;;;15.80;99.90;;;;;;5091597;28;20576;-64
2022/11/03 01:09:31;;;;;;;0.40;0.40;;;15.70;99.90;;;;;;5091591;28;20340;-65
2022/11/03 01:12:19;;;;;;;2.25;1.30;;;15.60;99.90;;;;;;5090960;28;20279;-65
2022/11/03 01:15:08;;;;;;;0.40;0.40;;;15.60;99.90;;;;;;5091280;28;20245;-65
2022/11/03 01:17:56;;;;;;;1.83;1.73;;;15.70;99.90;;;;;;5091045;28;20219;-65
2022/11/03 01:20:44;;;;;;;1.80;1.67;;;15.60;99.90;;;;;;5113315;22;20277;-66
2022/11/03 01:23:34;;;;;;;0.70;0.70;;;15.60;99.90;;;;;;5124058;28;20208;-65
2022/11/03 01:26:24;;;;;;;0.40;0.40;;;15.60;99.90;;;;;;5132826;28;20492;-66
2022/11/03 01:29:12;;;;;;;0.52;0.52;;;15.60;99.90;;;;;;5132355;28;20195;-68
2022/11/03 01:32:00;;;;;;;0.50;0.50;;;15.60;99.90;;;;;;5132570;28;20211;-66
2022/11/03 01:34:48;;;;;;;0.40;0.40;;;15.60;99.90;;;;;;5132069;28;20571;-68
2022/11/03 01:37:36;;;;;;;0.40;0.40;;;15.60;99.90;;;;;;5131757;28;20344;-65
2022/11/03 01:40:24;;;;;;;0.40;0.40;;;15.60;99.90;;;;;;5132449;28;20219;-65
2022/11/03 01:43:18;;;;;;;0.40;0.40;;;15.60;99.90;;;;;;5131508;28;20270;-68
2022/11/03 01:46:12;;;;;;;0.40;0.40;;;15.60;99.90;;;;;;5131841;28;20290;-67
2022/11/03 01:49:06;;;;;;;0.40;0.40;;;15.50;99.90;;;;;;5131897;28;20202;-66
2022/11/03 01:51:58;;;;;;;0.40;0.40;;;14.80;99.90;;;;;;5130677;28;20215;-65
2022/11/03 01:54:50;;;;;;;0.40;0.40;;;15.50;99.90;;;;;;5130676;28;20209;-66
2022/11/03 01:57:45;;;;;;;0.50;0.50;;;15.50;99.90;;;;;;5131630;28;20695;-69
2022/11/03 02:00:35;;;;;;;0.40;0.40;;;15.50;99.90;;;;;;5131192;28;20222;-66
2022/11/03 02:03:24;;;;;;;0.65;0.65;;;15.50;99.90;;;;;;5130537;28;20209;-67
2022/11/03 02:06:12;;;;;;;0.40;0.40;;;15.50;99.90;;;;;;5131609;27;20670;-67
2022/11/03 02:09:04;;;;;;;0.60;0.60;;;15.50;99.90;;;;;;5134311;27;20305;-67
2022/11/03 02:12:07;;;;;;;0.40;0.40;;;15.40;99.90;;;;;;5135409;27;20218;-66
2022/11/03 02:14:59;;;;;;;1.42;1.42;;;15.40;99.90;;;;;;5135249;27;20626;-66
2022/11/03 02:17:51;;;;;;;0.40;0.40;;;15.40;99.90;;;;;;5135334;27;20214;-69
2022/11/03 02:20:41;;;;;;;0.40;0.40;;;15.40;99.90;;;;;;5135304;27;20305;-66
2022/11/03 02:23:39;;;;;;;0.40;0.40;;;15.40;99.90;;;;;;5133976;27;20698;-66
2022/11/03 02:26:28;;;;;;;0.57;0.57;;;15.40;99.90;;;;;;5134236;27;20217;-68
2022/11/03 02:29:17;;;;;;;0.40;0.40;;;15.40;99.90;;;;;;5135214;27;20201;-70
2022/11/03 02:32:10;;;;;;;3.22;2.35;;;15.40;99.90;;;;;;5134846;27;20218;-69
2022/11/03 02:35:03;;;;;;;0.40;0.40;;;15.40;99.90;;;;;;5135013;27;20195;-66
2022/11/03 02:37:56;;;;;;;1.85;0.90;;;15.40;99.90;;;;;;5134749;27;20298;-65
2022/11/03 02:40:48;;;;;;;0.40;0.40;;;15.40;99.90;;;;;;5134631;27;20228;-68
2022/11/03 02:43:39;;;;;;;2.45;2.35;;;15.30;99.90;;;;;;5133649;27;20287;-66
2022/11/03 02:46:30;;;;;;;0.73;0.73;;;15.30;99.90;;;;;;5134738;27;20202;-68
2022/11/03 02:49:18;;;;;;;0.40;0.40;;;15.30;99.90;;;;;;5134267;27;20198;-64
2022/11/03 02:52:07;;;;;;;0.40;0.40;;;15.40;99.90;;;;;;5132620;27;20218;-68
2022/11/03 02:54:56;;;;;;;0.40;0.40;;;15.30;99.90;;;;;;5133040;27;20286;-63
2022/11/03 02:57:50;;;;;;;0.40;0.40;;;15.30;99.90;;;;;;5133603;27;20316;-64
2022/11/03 03:00:46;;;;;;;0.40;0.40;;;15.30;99.90;;;;;;5132372;27;20250;-63
2022/11/03 03:03:38;;;;;;;0.40;0.40;;;15.30;99.90;;;;;;5133617;27;20203;-67
2022/11/03 03:06:32;;;;;;;0.88;0.88;;;15.30;99.90;;;;;;5133516;27;20202;-66
2022/11/03 03:09:24;;;;;;;0.40;0.40;;;15.40;99.90;;;;;;5134485;27;20234;-66
2022/11/03 03:12:15;;;;;;;0.60;0.60;;;15.30;99.90;;;;;;5134159;27;20302;-67
2022/11/03 03:15:07;;;;;;;0.40;0.40;;;15.40;99.90;;;;;;5134903;27;20199;-68
2022/11/03 03:18:01;;;;;;;0.40;0.40;;;15.40;99.90;;;;;;5132856;27;20324;-65
2022/11/03 03:20:55;;;;;;;0.50;0.50;;;15.40;99.90;;;;;;5133090;27;20222;-65
2022/11/03 03:23:48;;;;;;;0.40;0.40;;;15.30;99.90;;;;;;5133604;27;20326;-66
2022/11/03 03:26:42;;;;;;;0.70;0.70;;;15.40;99.90;;;;;;5133480;27;20198;-67
2022/11/03 03:29:36;;;;;;;0.40;0.40;;;15.40;99.90;;;;;;5134105;27;20412;-64
2022/11/03 03:32:26;;;;;;;0.50;0.50;;;15.40;99.90;;;;;;5133511;27;20330;-63
2022/11/03 03:35:20;;;;;;;0.40;0.40;;;15.40;99.90;;;;;;5133790;27;20805;-65
2022/11/03 03:38:11;;;;;;;0.40;0.40;;;15.40;99.90;;;;;;5133001;27;20219;-66
2022/11/03 03:41:01;;;;;;;0.80;0.80;;;15.40;99.90;;;;;;5132857;27;20722;-64
2022/11/03 03:43:56;;;;;;;0.40;0.40;;;15.40;99.90;;;;;;5133485;27;20202;-66
2022/11/03 03:46:49;;;;;;;0.40;0.40;;;15.40;99.90;;;;;;5132891;27;20293;-63
2022/11/03 03:49:37;;;;;;;0.40;0.40;;;15.40;99.90;;;;;;5132434;27;20340;-66
2022/11/03 03:52:27;;;;;;;0.40;0.40;;;15.40;99.90;;;;;;5132584;27;20201;-68
2022/11/03 03:55:20;;;;;;;0.40;0.40;;;15.30;99.90;;;;;;5133972;27;20665;-68
2022/11/03 03:58:11;;;;;;;0.40;0.40;;;15.30;99.90;;;;;;5131962;27;20614;-64
2022/11/03 04:00:59;;;;;;;0.40;0.40;;;15.30;99.90;;;;;;5132953;27;20255;-68
2022/11/03 04:03:48;;;;;;;0.40;0.40;;;15.30;99.90;;;;;;5132981;27;20202;-68
2022/11/03 04:06:35;;;;;;;0.50;0.50;;;15.30;99.90;;;;;;5133377;27;20282;-63
2022/11/03 04:09:25;;;;;;;2.50;2.40;;;15.30;99.90;;;;;;5132745;27;20221;-65
2022/11/03 04:24:37;;;;;;;0.70;0.70;;;15.20;99.90;;;;;;5131980;27;20236;-66
2022/11/03 04:27:31;;;;;;;0.40;0.40;;;15.20;99.90;;;;;;5132633;27;20194;-64
2022/11/03 04:30:23;;;;;;;0.52;0.52;;;15.20;99.90;;;;;;5131900;27;20203;-67
2022/11/03 04:33:15;;;;;;;0.57;0.57;;;15.20;99.90;;;;;;5132178;27;20213;-64
2022/11/03 04:36:11;;;;;;;0.60;0.60;;;15.20;99.90;;;;;;5132498;27;20291;-65
2022/11/03 04:38:59;;;;;;;1.15;1.15;;;15.20;99.90;;;;;;5133026;27;20815;-67
2022/11/03 04:41:48;;;;;;;0.40;0.40;;;15.20;99.90;;;;;;5132446;27;20301;-62
2022/11/03 04:44:36;;;;;;;0.93;0.93;;;15.20;99.90;;;;;;5130969;27;20206;-65
2022/11/03 04:47:25;;;;;;;0.40;0.40;;;15.20;99.90;;;;;;5132010;27;20226;-68
2022/11/03 04:50:18;;;;;;;2.47;1.48;;;15.20;99.90;;;;;;5130591;27;20701;-67
2022/11/03 04:53:11;;;;;;;0.40;0.40;;;15.20;99.90;;;;;;5131623;27;20202;-66
2022/11/03 04:55:59;;;;;;;0.40;0.40;;;15.20;99.90;;;;;;5132331;27;20222;-69
2022/11/03 04:58:57;;;;;;;0.40;0.40;;;15.20;99.90;;;;;;5132147;27;20359;-65
2022/11/03 05:01:46;;;;;;;1.25;1.13;;;15.20;99.90;;;;;;5132023;27;20274;-63
2022/11/03 05:04:34;;;;;;;0.40;0.40;;;15.30;99.90;;;;;;5131711;28;20202;-66
2022/11/03 05:07:30;;;;;;;0.40;0.40;;;15.30;99.90;;;;;;5132331;28;20234;-66
2022/11/03 05:10:21;;;;;;;0.40;0.40;;;15.30;99.90;;;;;;5132534;28;20251;-63
2022/11/03 05:13:17;;;;;;;0.40;0.40;;;15.20;99.90;;;;;;5131628;28;20198;-64
2022/11/03 05:16:08;;;;;;;0.70;0.70;;;15.30;99.90;;;;;;5132905;28;20867;-65
2022/11/03 05:18:56;;;;;;;0.60;0.60;;;15.20;99.90;;;;;;5132791;28;20348;-66
2022/11/03 05:21:44;;;;;;;0.40;0.40;;;15.20;99.90;;;;;;5131201;28;20257;-63
2022/11/03 05:24:33;;;;;;;0.82;0.82;;;15.20;99.90;;;;;;5132748;28;20279;-65
2022/11/03 05:27:22;;;;;;;0.40;0.40;;;15.20;99.90;;;;;;5132141;28;20197;-66
2022/11/03 05:30:14;;;;;;;0.40;0.40;;;15.20;99.90;;;;;;5129901;28;20198;-66
2022/11/03 05:33:16;;;;;;;0.40;0.40;;;15.20;99.90;;;;;;5132257;28;20202;-64
2022/11/03 05:36:13;;;;;;;0.40;0.40;;;15.20;99.90;;;;;;5130347;28;20198;-64
2022/11/03 05:39:17;;;;;;;0.40;0.40;;;15.20;99.90;;;;;;5130311;28;20256;-63
2022/11/03 05:42:24;;;;;;;0.82;0.82;;;15.20;99.90;;;;;;5132687;27;20218;-64
2022/11/03 05:45:22;;;;;;;0.40;0.40;;;15.30;99.90;;;;;;5136138;27;20273;-68
2022/11/03 05:48:20;;;;;;;0.47;0.47;;;15.30;99.90;;;;;;5136441;27;20278;-63
2022/11/03 05:51:18;;;;;;;0.73;0.73;;;15.30;99.90;;;;;;5135401;27;20348;-65
2022/11/03 05:54:12;;;;;;;0.40;0.40;;;15.30;99.90;;;;;;5136831;27;20220;-63
2022/11/03 05:57:10;;;;;;;0.40;0.40;;;15.20;99.90;;;;;;5136114;27;20206;-64
2022/11/03 05:59:58;;;;;;;1.02;1.02;;;15.20;99.90;;;;;;5134687;27;20218;-63
2022/11/03 06:02:49;;;;;;;0.85;0.85;;;15.20;99.90;;;;;;5136198;27;20603;-66
2022/11/03 06:05:40;;;;;;;0.40;0.40;;;15.20;99.90;;;;;;5135148;27;20210;-62
2022/11/03 06:08:35;;;;;;;0.50;0.50;;;15.20;99.90;;;;;;5135021;27;20194;-64
2022/11/03 06:11:32;;;;;;;1.38;1.25;;;15.20;99.90;;;;;;5134703;27;20225;-64
2022/11/03 06:14:22;;;;;;;2.28;2.20;;;15.20;99.90;;;;;;5134800;27;20197;-66
2022/11/03 06:17:21;;;;;;;1.48;0.77;;;15.20;99.90;;;;;;5135406;27;20203;-63
2022/11/03 06:20:18;;;;;;;12.88;3.35;;;15.20;99.90;;;;;;5135410;27;20293;-65
2022/11/03 06:23:15;;;;;;;1.05;1.05;;;15.20;99.90;;;;;;5135718;27;20226;-65
2022/11/03 06:26:12;;;;;;;1.00;1.00;;;15.20;99.90;;;;;;5135504;27;20206;-66
2022/11/03 06:29:00;;;;;;;2.15;2.05;;;15.20;99.90;;;;;;5133750;27;20320;-64
2022/11/03 06:31:50;;;;;;;0.77;0.77;;;15.10;99.90;;;;;;5135577;27;20219;-64
2022/11/03 06:34:43;;;;;;;1.40;1.40;;;15.10;99.90;;;;;;5134595;27;20734;-64
2022/11/03 06:37:33;;;;;;;7.90;6.03;;;15.10;99.90;;;;;;5135710;27;20737;-67
2022/11/03 06:40:34;;;;;;;2.35;2.25;;;15.10;99.90;;;;;;5134608;27;20663;-66
2022/11/03 06:43:24;;;;;;;0.70;0.70;;;15.10;99.90;;;;;;5135665;27;20277;-62
2022/11/03 06:46:18;;;;;;;5.63;3.50;;;15.10;99.90;;;;;;5134030;27;20279;-69
2022/11/03 06:49:25;;;;;;;0.40;0.40;;;15.10;99.90;;;;;;5134420;27;20236;-68
2022/11/03 06:52:24;;;;;;;5.47;4.05;;;15.20;99.90;;;;;;5124792;27;20270;-65
2022/11/03 06:55:23;;;;;;;0.40;0.40;;;15.20;99.90;;;;;;5112108;27;20206;-65
2022/11/03 06:58:17;;;;;;;0.50;0.50;;;15.20;99.90;;;;;;5121016;27;20235;-67
2022/11/03 07:01:14;;;;;;;0.40;0.40;;;15.50;99.90;;;;;;5113719;27;20269;-69
2022/11/03 07:04:11;;;;;;;0.40;0.40;;;15.20;99.90;;;;;;5127059;27;20234;-66
2022/11/03 07:07:03;;;;;;;0.40;0.40;;;15.90;99.90;;;;;;5127248;27;20255;-65
2022/11/03 07:09:51;;;;;;;0.40;0.40;;;15.90;99.90;;;;;;5119597;27;20674;-68
2022/11/03 07:12:39;;;;;;;1.02;1.02;;;15.70;99.90;;;;;;5113716;28;20334;-65
2022/11/03 07:15:33;;;;;;;0.75;0.75;;;15.70;99.90;;;;;;5110949;28;20249;-66
2022/11/03 07:18:25;;;;;;;0.50;0.50;;;15.80;99.90;;;;;;5112800;28;20756;-68
2022/11/03 07:21:27;;;;;;;0.40;0.40;;;15.90;99.90;;;;;;5112366;28;20314;-69
2022/11/03 07:24:19;;;;;;;0.40;0.40;;;16.10;99.90;;;;;;5105543;27;20202;-66
2022/11/03 07:27:15;;;;;;;0.40;0.40;;;16.30;99.90;;;;;;5113487;27;20206;-65
2022/11/03 07:30:15;;;;;;;0.40;0.40;;;16.70;99.90;;;;;;5122813;27;20271;-64
2022/11/03 07:33:14;;;;;;;0.50;0.50;;;16.70;99.90;;;;;;5126906;27;20186;-64
2022/11/03 07:36:03;;;;;;;2.50;1.10;;;17.00;99.90;;;;;;5129853;27;20263;-64
2022/11/03 07:39:14;;;;;;;0.60;0.60;;;17.30;99.90;;;;;;5114284;27;20270;-66
2022/11/03 07:42:03;;;;;;;1.60;1.50;;;17.60;99.90;;;;;;5119818;27;20214;-65
2022/11/03 07:44:52;;;;;;;8.82;2.50;;;17.90;99.90;;;;;;5120614;27;20316;-68
2022/11/03 07:47:40;;;;;;;0.50;0.50;;;18.10;99.90;;;;;;5116762;27;20343;-69
2022/11/03 07:50:30;;;;;;;0.40;0.40;;;18.40;99.90;;;;;;5113237;28;20306;-66
2022/11/03 07:53:22;;;;;;;0.50;0.50;;;18.50;99.90;;;;;;5122881;27;20665;-65
2022/11/03 07:56:19;;;;;;;1.48;1.45;;;18.80;99.90;;;;;;5133687;27;20214;-65
2022/11/03 07:59:15;;;;;;;0.40;0.40;;;18.90;99.50;;;;;;5132776;27;20226;-65
2022/11/03 08:02:22;;;;;;;0.40;0.40;;;19.10;99.40;;;;;;5133414;27;20259;-66
2022/11/03 08:05:10;;;;;;;11.05;3.30;;;19.20;99.20;;;;;;5123084;27;20192;-65
2022/11/03 08:08:00;;;;;;;0.40;0.40;;;19.30;98.90;;;;;;5133026;27;20213;-66
2022/11/03 08:10:48;;;;;;;1.20;1.13;;;19.30;98.70;;;;;;5132422;27;20219;-65
2022/11/03 08:13:36;;;;;;;0.50;0.50;;;19.30;98.30;;;;;;5120652;27;20686;-64
2022/11/03 08:16:24;;;;;;;0.40;0.40;;;19.40;98.20;;;;;;5110935;28;20199;-66
2022/11/03 08:19:12;;;;;;;0.40;0.40;;;19.20;98.20;;;;;;5112386;28;20203;-66
2022/11/03 08:22:00;;;;;;;1.13;1.10;;;19.40;98.10;;;;;;5114903;27;20305;-66
2022/11/03 08:24:49;;;;;;;0.40;0.40;;;19.30;98.00;;;;;;5132511;27;20282;-68
2022/11/03 08:27:38;;;;;;;1.50;1.40;;;19.30;98.30;;;;;;5124983;27;20629;-68
2022/11/03 08:30:27;;;;;;;0.40;0.40;;;19.30;99.00;;;;;;5119757;27;20310;-69
2022/11/03 08:33:15;;;;;;;0.50;0.50;;;19.20;99.00;;;;;;5130760;27;20227;-69
2022/11/03 08:36:04;;;;;;;0.40;0.40;;;19.20;99.90;;;;;;5118269;27;20202;-67
2022/11/03 08:38:52;;;;;;;0.40;0.40;;;19.40;99.90;;;;;;5110402;28;20630;-71
2022/11/03 08:41:41;;;;;;;0.40;0.40;;;19.60;99.90;;;;;;5110584;28;20343;-70
2022/11/03 08:44:29;;;;;;;0.40;0.40;;;19.80;99.90;;;;;;5112804;27;20383;-67
2022/11/03 08:47:17;;;;;;;0.40;0.40;;;19.80;99.90;;;;;;5109619;27;20788;-68
2022/11/03 08:50:06;;;;;;;0.40;0.40;;;19.50;99.90;;;;;;5113360;28;20287;-68
2022/11/03 08:52:54;;;;;;;0.30;0.30;;;19.50;99.90;;;;;;5129338;27;20281;-72
2022/11/03 08:55:43;;;;;;;0.68;0.68;;;19.30;99.90;;;;;;5122078;27;20209;-67
2022/11/03 08:58:32;;;;;;;0.40;0.40;;;19.10;99.90;;;;;;5108211;28;20544;-68
2022/11/03 09:01:20;;;;;;;0.40;0.40;;;19.00;99.90;;;;;;5137662;27;20707;-72
2022/11/03 09:04:08;;;;;;;0.70;0.70;;;19.10;99.90;;;;;;5132418;28;20199;-72
2022/11/03 09:06:56;;;;;;;0.40;0.40;;;19.00;99.90;;;;;;5139150;27;20255;-70
2022/11/03 09:09:44;;;;;;;0.40;0.40;;;19.10;99.90;;;;;;5138876;27;20226;-70
2022/11/03 09:12:53;;;;;;;0.40;0.40;;;19.20;99.80;;;;;;5133087;28;20203;-72
2022/11/03 09:15:43;;;;;;;0.40;0.40;;;19.30;99.50;;;;;;5123961;28;20752;-69
2022/11/03 09:18:32;;;;;;;0.50;0.50;;;19.40;99.70;;;;;;5129667;27;20200;-73
2022/11/03 09:21:20;;;;;;;0.40;0.40;;;19.30;99.50;;;;;;5118585;27;20229;-71
2022/11/03 09:24:09;;;;;;;0.40;0.40;;;19.60;99.30;;;;;;5136174;27;20277;-71
2022/11/03 09:26:57;;;;;;;0.40;0.40;;;19.70;99.60;;;;;;5135802;27;20573;-71
2022/11/03 09:29:49;;;;;;;0.40;0.40;;;19.80;98.90;;;;;;5136547;27;20611;-71
2022/11/03 09:32:58;;;;;;;0.40;0.40;;;19.70;98.80;;;;;;5136192;27;20203;-67
2022/11/03 09:35:46;;;;;;;0.75;0.75;;;20.00;98.60;;;;;;5133820;27;20263;-67
2022/11/03 09:38:34;;;;;;;0.40;0.40;;;20.00;98.10;;;;;;5135068;27;20195;-67
2022/11/03 09:41:23;;;;;;;0.40;0.40;;;19.90;98.10;;;;;;5135940;27;20224;-68
2022/11/03 09:44:22;;;;;;;0.40;0.40;;;20.20;98.30;;;;;;5134922;27;20747;-67
2022/11/03 09:47:18;;;;;;;0.40;0.40;;;20.20;98.00;;;;;;5135443;27;20291;-68
2022/11/03 09:50:14;;;;;;;0.40;0.40;;;20.20;98.50;;;;;;5127768;27;20313;-66
2022/11/03 09:53:03;;;;;;;0.40;0.40;;;20.20;98.50;;;;;;5124326;27;20224;-68
2022/11/03 09:55:51;;;;;;;0.40;0.40;;;20.10;98.50;;;;;;5116183;27;20591;-68
2022/11/03 09:58:40;;;;;;;0.40;0.40;;;20.10;98.30;;;;;;5117405;27;20320;-66
2022/11/03 10:01:30;;;;;;;0.40;0.40;;;20.10;98.70;;;;;;5127979;27;20218;-66
2022/11/03 10:04:22;;;;;;;0.70;0.70;;;20.00;98.70;;;;;;5125319;27;20287;-69
2022/11/03 10:07:11;;;;;;;0.40;0.40;;;20.00;98.80;;;;;;5135155;27;20239;-68
2022/11/03 10:10:01;;;;;;;0.60;0.60;;;20.00;99.10;;;;;;5134171;27;20260;-69
2022/11/03 10:12:51;;;;;;;0.80;0.80;;;19.90;98.90;;;;;;5127811;27;20243;-67
2022/11/03 10:15:41;;;;;;;0.40;0.40;;;19.80;98.90;;;;;;5115262;28;20211;-67
2022/11/03 10:18:29;;;;;;;1.77;1.67;;;19.80;99.30;;;;;;5114742;28;20203;-67
2022/11/03 10:21:19;;;;;;;0.40;0.40;;;19.80;98.90;;;;;;5117405;27;20310;-68
2022/11/03 10:24:11;;;;;;;0.40;0.40;;;19.80;98.60;;;;;;5130138;27;20226;-68
2022/11/03 10:26:59;;;;;;;0.40;0.40;;;19.80;98.60;;;;;;5134721;27;20212;-68
2022/11/03 10:30:04;;;;;;;0.40;0.40;;;20.00;98.50;;;;;;5131307;27;20278;-69
2022/11/03 10:32:52;;;;;;;0.40;0.40;;;20.10;99.20;;;;;;5130459;27;20627;-67
2022/11/03 10:35:40;;;;;;;0.43;0.43;;;20.10;99.10;;;;;;5135046;27;20234;-67
2022/11/03 10:38:30;;;;;;;1.95;1.85;;;20.20;98.40;;;;;;5118981;27;20198;-67
2022/11/03 10:41:21;;;;;;;0.40;0.40;;;20.30;98.20;;;;;;5118888;27;20222;-66
2022/11/03 10:44:18;;;;;;;0.40;0.40;;;20.40;98.00;;;;;;5133854;27;20195;-68
2022/11/03 10:47:06;;;;;;;0.40;0.40;;;20.40;97.80;;;;;;5125718;27;20220;-68
2022/11/03 10:49:57;;;;;;;0.40;0.40;;;20.50;97.70;;;;;;5128405;27;20194;-67
2022/11/03 10:52:45;;;;;;;0.40;0.40;;;20.60;97.60;;;;;;5126318;27;20198;-68
2022/11/03 10:55:33;;;;;;;0.40;0.40;;;20.60;97.30;;;;;;5122114;27;20284;-67
2022/11/03 10:58:24;;;;;;;0.40;0.40;;;20.70;98.40;;;;;;5113682;28;20196;-66
2022/11/03 11:01:12;;;;;;;7.30;5.82;;;20.80;98.20;;;;;;5114815;28;20336;-69
2022/11/03 11:04:01;;;;;;;70.65;24.73;;;20.80;97.70;;;;;;5115229;28;20575;-67
2022/11/03 11:06:49;;;;;;;40.60;18.55;;;20.80;97.40;;;;;;5115605;27;20244;-67
2022/11/03 11:09:37;;;;;;;9.73;8.85;;;20.80;97.30;;;;;;5135263;27;20591;-67
2022/11/03 11:12:25;;;;;;;11.90;8.80;;;20.70;97.70;;;;;;5134225;27;20214;-66
2022/11/03 11:15:37;;;;;;;9.63;3.40;;;20.60;97.50;;;;;;5133894;27;20244;-66
2022/11/03 11:19:10;;;;;;;0.55;0.55;;;20.60;97.60;;;;;;5134540;27;20285;-67
2022/11/03 11:22:11;;;;;;;0.40;0.40;;;20.60;98.30;;;;;;5121009;27;20690;-67
2022/11/03 11:25:01;;;;;;;0.40;0.40;;;20.50;97.80;;;;;;5122129;27;20201;-66
2022/11/03 11:27:57;;;;;;;2.05;1.95;;;20.50;98.10;;;;;;5114130;27;20240;-66
2022/11/03 11:31:18;;;;;;;0.40;0.40;;;20.40;98.20;;;;;;5114763;27;20315;-67
2022/11/03 11:34:43;;;;;;;3.75;3.65;;;20.30;97.50;;;;;;5112928;28;20195;-67
2022/11/03 11:37:33;;;;;;;0.40;0.40;;;20.20;97.70;;;;;;5100726;27;20380;-69
2022/11/03 11:40:51;;;;;;;1.05;1.05;;;20.30;97.70;;;;;;5139564;27;20202;-68
2022/11/03 11:43:39;;;;;;;202.13;81.05;;;20.30;97.70;;;;;;5128251;27;20198;-68
2022/11/03 11:46:40;;;;;;;169.48;62.97;;;20.30;98.10;;;;;;5124748;27;20295;-68
2022/11/03 11:49:28;;;;;;;26.73;23.92;;;20.40;98.10;;;;;;5132793;27;20910;-69
2022/11/03 11:52:17;;;;;;;28.27;25.17;;;20.70;98.00;;;;;;5131298;27;20298;-68
2022/11/03 11:55:15;;;;;;;12.68;9.50;;;20.60;97.80;;;;;;5132255;27;20213;-68
2022/11/03 11:58:06;;;;;;;0.50;0.50;;;20.70;97.90;;;;;;5133224;27;20226;-67
2022/11/03 12:01:00;;;;;;;0.40;0.40;;;20.90;99.90;;;;;;5131987;27;20293;-66
2022/11/03 12:03:50;;;;;;;0.40;0.40;;;21.10;99.90;;;;;;5132034;27;20230;-66
2022/11/03 12:06:40;;;;;;;0.40;0.40;;;21.20;99.90;;;;;;5116022;27;20660;-66
2022/11/03 12:09:30;;;;;;;1.10;1.10;;;21.40;99.90;;;;;;5131876;27;20206;-67
2022/11/03 12:12:33;;;;;;;0.40;0.40;;;21.50;99.90;;;;;;5122989;27;20222;-66
2022/11/03 12:15:50;;;;;;;0.40;0.40;;;21.70;99.90;;;;;;5119292;27;20742;-67
2022/11/03 12:18:40;;;;;;;0.40;0.40;;;21.90;99.90;;;;;;5114069;27;20192;-69
2022/11/03 12:21:47;;;;;;;2.38;2.28;;;21.80;98.40;;;;;;5119500;27;20223;-66
2022/11/03 12:24:48;;;;;;;0.40;0.40;;;21.60;97.50;;;;;;5132983;27;20282;-64
2022/11/03 12:27:42;;;;;;;0.40;0.40;;;21.50;97.00;;;;;;5118381;27;20191;-64
2022/11/03 12:30:30;;;;;;;0.88;0.88;;;21.40;96.80;;;;;;5124361;27;20259;-64
2022/11/03 12:33:26;;;;;;;0.40;0.40;;;21.20;96.70;;;;;;5122138;27;20194;-64
2022/11/03 12:36:14;;;;;;;0.40;0.40;;;21.20;97.00;;;;;;5112919;28;20194;-63
2022/11/03 12:39:02;;;;;;;0.40;0.40;;;21.20;97.10;;;;;;5112805;28;20226;-67
2022/11/03 12:41:51;;;;;;;0.40;0.40;;;21.10;97.40;;;;;;5113323;28;20219;-63
2022/11/03 12:44:39;;;;;;;0.40;0.40;;;21.00;97.30;;;;;;5112745;27;20261;-65
2022/11/03 12:47:31;;;;;;;0.40;0.40;;;21.00;97.50;;;;;;5121956;27;20203;-65
2022/11/03 12:50:19;;;;;;;0.40;0.40;;;20.90;97.50;;;;;;5111406;28;20253;-64
2022/11/03 12:53:07;;;;;;;0.40;0.40;;;20.90;97.60;;;;;;5112440;28;20255;-65
2022/11/03 12:55:55;;;;;;;0.40;0.40;;;20.90;97.70;;;;;;5120561;27;20203;-70
2022/11/03 12:58:45;;;;;;;0.40;0.40;;;20.60;97.40;;;;;;5119838;27;20282;-68
2022/11/03 13:01:33;;;;;;;0.40;0.40;;;21.00;97.40;;;;;;5121672;27;20683;-65
2022/11/03 13:04:21;;;;;;;0.40;0.40;;;20.80;97.00;;;;;;5117160;28;20192;-64
2022/11/03 13:07:09;;;;;;;0.40;0.40;;;20.70;97.30;;;;;;5130085;28;20205;-65
2022/11/03 13:09:57;;;;;;;0.40;0.40;;;21.00;97.40;;;;;;5123844;28;20336;-65
2022/11/03 13:12:45;;;;;;;0.40;0.40;;;21.00;97.00;;;;;;5122865;28;20275;-66
2022/11/03 13:15:35;;;;;;;0.50;0.50;;;20.90;97.10;;;;;;5119284;28;20252;-64
2022/11/03 13:18:23;;;;;;;0.40;0.40;;;21.00;97.10;;;;;;5121005;28;20276;-64
2022/11/03 13:21:12;;;;;;;0.40;0.40;;;21.00;96.90;;;;;;5128318;28;20281;-64
2022/11/03 13:24:00;;;;;;;0.40;0.40;;;21.10;96.60;;;;;;5119758;28;20234;-65
2022/11/03 13:26:48;;;;;;;0.45;0.45;;;21.20;96.40;;;;;;5120250;28;20726;-65
2022/11/03 13:29:36;;;;;;;0.35;0.35;;;21.20;96.30;;;;;;5113473;28;20191;-65
2022/11/03 13:32:25;;;;;;;0.40;0.40;;;21.40;96.40;;;;;;5113155;28;20294;-66
2022/11/03 13:35:13;;;;;;;1.10;1.10;;;21.40;96.50;;;;;;5117792;27;20625;-66
2022/11/03 13:38:02;;;;;;;0.77;0.77;;;21.50;96.20;;;;;;5137189;27;20682;-65
2022/11/03 13:40:50;;;;;;;0.40;0.40;;;21.40;96.10;;;;;;5153289;27;20214;-64
2022/11/03 13:43:46;;;;;;;0.40;0.40;;;21.40;96.20;;;;;;5132710;28;20223;-66
2022/11/03 13:46:34;;;;;;;0.40;0.40;;;21.40;96.30;;;;;;5129966;28;20275;-64
2022/11/03 13:49:23;;;;;;;0.40;0.40;;;21.40;96.90;;;;;;5131739;28;20199;-62
2022/11/03 13:52:32;;;;;;;0.40;0.40;;;21.30;96.50;;;;;;5113225;28;20191;-62
2022/11/03 13:55:21;;;;;;;2.20;2.05;;;21.30;96.60;;;;;;5116362;28;20450;-64
2022/11/03 13:58:29;;;;;;;0.40;0.40;;;21.20;96.70;;;;;;5123049;28;20198;-63
2022/11/03 14:01:38;;;;;;;0.40;0.40;;;21.20;96.90;;;;;;5117109;28;20219;-63
2022/11/03 14:04:29;;;;;;;0.63;0.63;;;21.10;97.30;;;;;;5119246;27;20196;-64
2022/11/03 14:07:32;;;;;;;0.40;0.40;;;21.10;97.00;;;;;;5118001;27;20199;-63
2022/11/03 14:10:20;;;;;;;2.58;2.42;;;21.00;96.90;;;;;;5136262;27;20220;-64
2022/11/03 14:13:09;;;;;;;0.40;0.40;;;20.90;97.20;;;;;;5156043;27;20194;-64
2022/11/03 14:15:57;;;;;;;0.40;0.40;;;20.90;97.50;;;;;;5156655;27;20276;-64
2022/11/03 14:18:45;;;;;;;0.40;0.40;;;20.80;97.70;;;;;;5150714;27;20860;-64
2022/11/03 14:21:36;;;;;;;0.40;0.40;;;20.80;97.50;;;;;;5136885;27;20244;-64
2022/11/03 14:24:24;;;;;;;0.40;0.40;;;20.70;97.30;;;;;;5130764;27;20211;-65
2022/11/03 14:27:14;;;;;;;0.40;0.40;;;20.70;97.30;;;;;;5123951;27;20262;-65
2022/11/03 14:30:03;;;;;;;1.63;0.93;;;20.70;97.60;;;;;;5122669;27;20195;-64
2022/11/03 14:32:51;;;;;;;0.40;0.40;;;20.80;97.50;;;;;;5115781;27;20195;-65
2022/11/03 14:35:53;;;;;;;0.40;0.40;;;20.90;97.80;;;;;;5130108;27;20194;-66
2022/11/03 14:38:42;;;;;;;0.40;0.40;;;21.00;97.70;;;;;;5128794;27;20195;-66
2022/11/03 14:44:43;;;;;;;0.40;0.40;;;21.20;97.40;;;;;;5128600;27;20332;-67
2022/11/03 14:47:32;;;;;;;0.40;0.40;;;21.30;97.10;;;;;;5129796;27;20575;-64
2022/11/03 14:50:20;;;;;;;0.40;0.40;;;21.40;97.00;;;;;;5133856;27;20194;-63
2022/11/03 14:53:08;;;;;;;0.40;0.40;;;21.40;96.70;;;;;;5132964;27;20231;-64
2022/11/03 14:55:57;;;;;;;1.95;1.85;;;21.40;96.30;;;;;;5116690;27;20641;-64
2022/11/03 14:58:47;;;;;;;1.52;1.42;;;21.50;96.10;;;;;;5133151;27;20199;-65
2022/11/03 15:01:37;;;;;;;1.15;1.15;;;21.60;95.80;;;;;;5136570;27;20305;-64
2022/11/03 15:04:25;;;;;;;0.40;0.40;;;21.80;95.50;;;;;;5121193;27;20707;-66
2022/11/03 15:07:14;;;;;;;0.40;0.40;;;21.60;95.40;;;;;;5111834;27;20324;-66
2022/11/03 15:10:02;;;;;;;1.60;1.50;;;21.60;95.00;;;;;;5125416;27;20209;-64
2022/11/03 15:12:51;;;;;;;0.40;0.40;;;21.60;95.20;;;;;;5122230;27;20679;-64